createdAt,value
2024-01-16T00:01:48.003Z,6.20
2024-01-16T00:04:14.593Z,6.30
2024-01-16T00:06:41.212Z,6.20
2024-01-16T00:09:07.729Z,6.30
2024-01-16T00:11:34.298Z,6.20
2024-01-16T00:14:00.838Z,6.10
2024-01-16T00:16:27.340Z,6.10
2024-01-16T00:18:53.886Z,6.20
2024-01-16T00:21:20.472Z,6.20
2024-01-16T00:23:47.090Z,6.20
2024-01-16T00:26:13.685Z,6.20
2024-01-16T00:28:40.214Z,6.20
2024-01-16T00:31:06.749Z,6.10
2024-01-16T00:33:33.306Z,6.10
2024-01-16T00:35:59.887Z,6.10
2024-01-16T00:38:26.407Z,6.20
2024-01-16T00:40:52.947Z,6.20
2024-01-16T00:43:19.469Z,6.20
2024-01-16T00:45:46.007Z,6.10
2024-01-16T00:48:12.632Z,6.30
2024-01-16T00:50:39.462Z,6.40
2024-01-16T00:53:06.046Z,6.30
2024-01-16T00:55:32.582Z,6.20
2024-01-16T00:57:59.095Z,6.20
2024-01-16T01:00:25.663Z,6.30
2024-01-16T01:02:52.268Z,6.20
2024-01-16T01:05:18.974Z,6.20
2024-01-16T01:07:45.552Z,6.10
2024-01-16T01:10:12.135Z,6.10
2024-01-16T01:12:38.729Z,6.20
2024-01-16T01:15:05.364Z,6.30
2024-01-16T01:17:32.048Z,6.40
2024-01-16T01:19:58.608Z,6.20
2024-01-16T01:22:25.113Z,6.30
2024-01-16T01:24:51.652Z,6.30
2024-01-16T01:27:18.172Z,6.20
2024-01-16T01:29:44.805Z,6.20
2024-01-16T01:32:11.412Z,6.20
2024-01-16T01:34:37.953Z,6.20
2024-01-16T01:37:04.458Z,6.10
2024-01-16T01:39:30.973Z,6.20
2024-01-16T01:41:57.600Z,6.20
2024-01-16T01:44:24.237Z,6.20
2024-01-16T01:46:50.766Z,6.30
2024-01-16T01:49:17.284Z,6.20
2024-01-16T01:51:43.796Z,6.20
2024-01-16T01:54:10.313Z,6.20
2024-01-16T01:56:36.870Z,6.20
2024-01-16T01:59:03.427Z,6.30
2024-01-16T02:01:29.950Z,6.20
2024-01-16T02:03:56.488Z,6.20
2024-01-16T02:06:23.158Z,6.20
2024-01-16T02:08:49.806Z,6.30
2024-01-16T02:11:16.481Z,6.20
2024-01-16T02:13:43.057Z,6.30
2024-01-16T02:16:09.586Z,6.20
2024-01-16T02:18:36.129Z,6.30
2024-01-16T02:21:02.665Z,6.30
2024-01-16T02:23:29.264Z,6.20
2024-01-16T02:25:55.777Z,6.20
2024-01-16T02:28:22.301Z,6.20
2024-01-16T02:30:48.929Z,6.20
2024-01-16T02:33:15.786Z,6.10
2024-01-16T02:35:42.498Z,6.20
2024-01-16T02:38:09.066Z,6.10
2024-01-16T02:40:35.591Z,6.00
2024-01-16T02:43:02.109Z,6.00
2024-01-16T02:45:28.630Z,6.00
2024-01-16T02:47:55.240Z,6.10
2024-01-16T02:50:21.852Z,6.10
2024-01-16T02:52:48.376Z,6.10
2024-01-16T02:55:14.904Z,6.20
2024-01-16T02:57:41.451Z,6.30
2024-01-16T03:00:07.984Z,6.20
2024-01-16T03:02:34.551Z,6.10
2024-01-16T03:05:01.079Z,6.10
2024-01-16T03:07:27.614Z,6.10
2024-01-16T03:09:54.145Z,6.20
2024-01-16T03:12:20.690Z,6.20
2024-01-16T03:14:47.253Z,6.20
2024-01-16T03:17:13.813Z,6.20
2024-01-16T03:19:40.376Z,6.20
2024-01-16T03:22:06.886Z,6.20
2024-01-16T03:24:33.437Z,6.20
2024-01-16T03:26:59.945Z,6.20
2024-01-16T03:29:26.603Z,6.30
2024-01-16T03:31:53.255Z,6.40
2024-01-16T03:34:19.848Z,6.40
2024-01-16T03:36:46.391Z,6.30
2024-01-16T03:39:12.948Z,6.30
2024-01-16T03:41:39.533Z,6.30
2024-01-16T03:44:06.100Z,6.30
2024-01-16T03:46:32.625Z,6.20
2024-01-16T03:48:59.254Z,6.20
2024-01-16T03:51:25.897Z,6.30
2024-01-16T03:53:52.541Z,6.20
2024-01-16T03:56:19.112Z,6.30
2024-01-16T03:58:45.697Z,6.20
2024-01-16T04:01:12.243Z,6.30
2024-01-16T04:03:38.817Z,6.30
2024-01-16T04:06:05.442Z,6.30
2024-01-16T04:08:32.095Z,6.30
2024-01-16T04:10:58.618Z,6.20
2024-01-16T04:13:25.166Z,6.30
2024-01-16T04:15:51.680Z,6.30
2024-01-16T04:18:18.257Z,6.30
2024-01-16T04:20:44.837Z,6.30
2024-01-16T04:23:11.439Z,6.30
2024-01-16T04:25:37.984Z,6.30
2024-01-16T04:28:04.514Z,6.30
2024-01-16T04:30:31.048Z,6.20
2024-01-16T04:32:57.842Z,6.20
2024-01-16T04:35:24.499Z,6.20
2024-01-16T04:37:51.052Z,6.20
2024-01-16T04:40:17.573Z,6.30
2024-01-16T04:42:44.137Z,6.30
2024-01-16T04:45:10.662Z,6.30
2024-01-16T04:47:37.312Z,6.40
2024-01-16T04:50:03.861Z,6.30
2024-01-16T04:52:30.407Z,6.30
2024-01-16T04:54:56.928Z,6.20
2024-01-16T04:57:23.460Z,6.10
2024-01-16T04:59:50.068Z,6.10
2024-01-16T05:02:16.669Z,6.20
2024-01-16T05:04:43.184Z,6.20
2024-01-16T05:07:09.710Z,6.20
2024-01-16T05:09:36.218Z,6.20
2024-01-16T05:12:02.749Z,6.10
2024-01-16T05:14:29.280Z,6.10
2024-01-16T05:16:55.853Z,6.10
2024-01-16T05:19:22.440Z,6.10
2024-01-16T05:21:49.000Z,6.10
2024-01-16T05:24:15.546Z,6.10
2024-01-16T05:26:42.126Z,6.20
2024-01-16T05:29:08.726Z,6.20
2024-01-16T05:31:35.265Z,6.30
2024-01-16T05:34:01.888Z,6.30
2024-01-16T05:36:28.487Z,6.40
2024-01-16T05:38:55.149Z,6.40
2024-01-16T05:41:21.713Z,6.30
2024-01-16T05:43:48.258Z,6.30
2024-01-16T05:46:14.778Z,6.30
2024-01-16T05:48:41.388Z,6.40
2024-01-16T05:51:08.059Z,6.20
2024-01-16T05:53:34.681Z,6.20
2024-01-16T05:56:01.291Z,6.20
2024-01-16T05:58:27.847Z,6.30
2024-01-16T06:00:54.420Z,6.30
2024-01-16T06:03:21.034Z,6.30
2024-01-16T06:05:47.674Z,6.30
2024-01-16T06:08:14.267Z,6.40
2024-01-16T06:10:40.794Z,6.40
2024-01-16T06:13:07.316Z,6.20
2024-01-16T06:15:33.814Z,6.20
2024-01-16T06:18:00.528Z,6.10
2024-01-16T06:20:27.146Z,6.10
2024-01-16T06:22:53.669Z,6.20
2024-01-16T06:25:20.174Z,6.30
2024-01-16T06:27:46.698Z,6.40
2024-01-16T06:30:13.316Z,6.20
2024-01-16T06:32:40.008Z,6.30
2024-01-16T06:35:06.734Z,6.10
2024-01-16T06:37:33.358Z,6.30
2024-01-16T06:39:59.870Z,6.30
2024-01-16T06:42:26.382Z,6.20
2024-01-16T06:44:53.024Z,6.20
2024-01-16T06:47:19.678Z,6.20
2024-01-16T06:49:46.251Z,6.20
2024-01-16T06:52:12.797Z,6.20
2024-01-16T06:54:39.325Z,6.20
2024-01-16T06:57:05.842Z,6.20
2024-01-16T06:59:32.391Z,6.30
2024-01-16T07:01:58.953Z,6.40
2024-01-16T07:04:25.552Z,6.30
2024-01-16T07:06:52.083Z,6.30
2024-01-16T07:09:18.581Z,6.40
2024-01-16T07:11:45.156Z,6.30
2024-01-16T07:14:11.869Z,6.30
2024-01-16T07:16:38.440Z,6.20
2024-01-16T07:19:05.042Z,6.30
2024-01-16T07:21:31.617Z,6.40
2024-01-16T07:23:58.223Z,6.40
2024-01-16T07:26:24.868Z,6.50
2024-01-16T07:28:51.420Z,6.50
2024-01-16T07:31:17.988Z,6.40
2024-01-16T07:33:44.679Z,6.40
2024-01-16T07:36:11.274Z,6.40
2024-01-16T07:38:37.936Z,6.50
2024-01-16T07:41:04.492Z,6.50
2024-01-16T07:43:31.019Z,6.30
2024-01-16T07:45:57.509Z,6.30
2024-01-16T07:48:24.192Z,6.30
2024-01-16T07:50:50.886Z,6.30
2024-01-16T07:53:17.528Z,6.40
2024-01-16T07:55:44.062Z,6.40
2024-01-16T07:58:10.573Z,6.30
2024-01-16T08:00:37.127Z,6.40
2024-01-16T08:03:03.776Z,6.50
2024-01-16T08:05:30.519Z,6.50
2024-01-16T08:07:57.072Z,6.30
2024-01-16T08:10:23.592Z,6.30
2024-01-16T08:12:50.111Z,6.30
2024-01-16T08:15:16.629Z,6.40
2024-01-16T08:17:43.381Z,6.30
2024-01-16T08:20:10.133Z,6.30
2024-01-16T08:22:36.686Z,6.30
2024-01-16T08:25:03.207Z,6.20
2024-01-16T08:27:29.743Z,6.30
2024-01-16T08:29:56.299Z,6.40
2024-01-16T08:32:22.919Z,6.40
2024-01-16T08:34:49.527Z,6.40
2024-01-16T08:37:16.069Z,6.20
2024-01-16T08:39:42.576Z,6.50
2024-01-16T08:42:09.117Z,6.40
2024-01-16T08:44:35.655Z,6.20
2024-01-16T08:47:02.221Z,6.30
2024-01-16T08:49:28.754Z,6.40
2024-01-16T08:51:55.330Z,6.20
2024-01-16T08:54:21.863Z,6.20
2024-01-16T08:56:48.509Z,6.20
2024-01-16T08:59:15.130Z,6.10
2024-01-16T09:01:41.673Z,6.30
2024-01-16T09:04:08.184Z,6.30
2024-01-16T09:06:34.889Z,6.40
2024-01-16T09:09:01.618Z,6.40
2024-01-16T09:11:28.288Z,6.30
2024-01-16T09:13:54.840Z,6.30
2024-01-16T09:16:21.349Z,6.40
2024-01-16T09:18:48.031Z,6.30
2024-01-16T09:21:14.689Z,6.20
2024-01-16T09:23:41.279Z,6.20
2024-01-16T09:26:07.822Z,6.20
2024-01-16T09:28:34.343Z,6.10
2024-01-16T09:31:00.874Z,6.20
2024-01-16T09:33:27.517Z,6.10
2024-01-16T09:35:55.329Z,6.20
2024-01-16T09:38:23.583Z,6.20
2024-01-16T09:40:50.442Z,6.20
2024-01-16T09:43:16.956Z,6.20
2024-01-16T09:45:43.458Z,6.30
2024-01-16T09:48:10.144Z,6.30
2024-01-16T09:50:36.775Z,6.20
2024-01-16T09:53:03.350Z,6.20
2024-01-16T09:55:29.869Z,6.20
2024-01-16T09:57:56.400Z,6.20
2024-01-16T10:00:22.914Z,6.20
2024-01-16T10:02:49.446Z,6.20
2024-01-16T10:05:16.144Z,6.20
2024-01-16T10:07:42.752Z,6.20
2024-01-16T10:10:09.283Z,6.20
2024-01-16T10:12:35.792Z,6.10
2024-01-16T10:15:02.365Z,6.40
2024-01-16T10:17:28.970Z,6.50
2024-01-16T10:19:55.533Z,6.40
2024-01-16T10:22:25.277Z,6.50
2024-01-16T10:24:52.728Z,6.50
2024-01-16T10:27:19.242Z,6.50
2024-01-16T10:29:50.452Z,6.40
2024-01-16T10:32:17.514Z,6.30
2024-01-16T10:34:44.181Z,6.30
2024-01-16T10:37:10.794Z,6.20
2024-01-16T10:39:41.489Z,6.20
2024-01-16T10:42:10.505Z,6.20
2024-01-16T10:44:37.118Z,6.20
2024-01-16T10:47:03.664Z,6.30
2024-01-16T10:49:40.616Z,6.30
2024-01-16T10:52:09.948Z,6.30
2024-01-16T10:54:36.480Z,6.20
2024-01-16T10:57:03.031Z,6.00
2024-01-16T10:59:29.681Z,6.20
2024-01-16T11:01:56.197Z,6.20
2024-01-16T11:04:22.803Z,6.30
2024-01-16T11:06:50.711Z,6.10
2024-01-16T11:09:17.343Z,6.10
2024-01-16T11:11:43.878Z,6.20
2024-01-16T11:14:10.399Z,6.10
2024-01-16T11:16:36.921Z,6.10
2024-01-16T11:19:18.638Z,6.10
2024-01-16T11:21:50.080Z,6.10
2024-01-16T11:24:16.676Z,6.10
2024-01-16T11:26:43.254Z,6.10
2024-01-16T11:29:09.822Z,6.20
2024-01-16T11:31:36.331Z,6.30
2024-01-16T11:34:03.618Z,6.20
2024-01-16T11:36:30.464Z,6.30
2024-01-16T11:38:57.027Z,6.30
2024-01-16T11:41:32.805Z,6.40
2024-01-16T11:44:05.911Z,6.40
2024-01-16T11:46:32.419Z,6.20
2024-01-16T11:48:59.016Z,6.20
2024-01-16T11:51:25.598Z,6.20
2024-01-16T11:53:52.166Z,6.20
2024-01-16T11:56:18.840Z,6.30
2024-01-16T11:58:46.301Z,6.10
2024-01-16T12:01:12.861Z,6.10
2024-01-16T12:03:39.412Z,6.30
2024-01-16T12:06:06.096Z,6.20
2024-01-16T12:08:32.746Z,6.00
2024-01-16T12:10:59.358Z,6.10
2024-01-16T12:13:25.901Z,6.20
2024-01-16T12:15:52.430Z,6.20
2024-01-16T12:20:46.072Z,6.40
2024-01-16T12:23:12.759Z,6.30
2024-01-16T12:26:01.114Z,6.40
2024-01-16T12:28:32.229Z,6.50
2024-01-16T12:31:00.492Z,6.40
2024-01-16T12:33:27.430Z,6.50
2024-01-16T12:35:54.065Z,6.60
2024-01-16T12:38:20.635Z,6.40
2024-01-16T12:40:47.177Z,6.50
2024-01-16T12:43:13.722Z,6.60
2024-01-16T12:45:40.235Z,6.50
2024-01-16T12:48:06.855Z,6.40
2024-01-16T12:50:33.569Z,6.40
2024-01-16T12:53:00.164Z,6.40
2024-01-16T12:55:26.683Z,6.60
2024-01-16T12:57:53.219Z,6.50
2024-01-16T13:00:19.725Z,6.40
2024-01-16T13:02:46.270Z,6.30
2024-01-16T13:05:12.923Z,6.20
2024-01-16T13:07:39.504Z,6.30
2024-01-16T13:10:06.026Z,6.20
2024-01-16T13:12:32.585Z,6.30
2024-01-16T13:14:59.117Z,6.40
2024-01-16T13:17:25.693Z,6.50
2024-01-16T13:19:52.233Z,6.60
2024-01-16T13:22:19.704Z,6.50
2024-01-16T13:24:54.436Z,6.40
2024-01-16T13:27:24.828Z,6.40
2024-01-16T13:29:51.386Z,6.30
2024-01-16T13:32:18.005Z,6.40
2024-01-16T13:34:44.587Z,6.40
2024-01-16T13:37:16.206Z,6.40
2024-01-16T13:39:43.231Z,6.30
2024-01-16T13:42:09.805Z,6.40
2024-01-16T13:44:36.453Z,6.30
2024-01-16T13:47:08.634Z,6.50
2024-01-16T13:49:38.766Z,6.40
2024-01-16T13:52:05.462Z,6.50
2024-01-16T13:54:31.994Z,6.60
2024-01-16T13:57:05.975Z,6.50
2024-01-16T13:59:34.833Z,6.50
2024-01-16T14:02:01.491Z,6.40
2024-01-16T14:04:28.107Z,6.30
2024-01-16T14:07:09.853Z,6.40
2024-01-16T14:09:39.649Z,6.50
2024-01-16T14:12:06.244Z,6.50
2024-01-16T14:14:32.856Z,6.50
2024-01-16T14:17:01.728Z,6.50
2024-01-16T14:19:28.761Z,6.50
2024-01-16T14:21:55.337Z,6.50
2024-01-16T14:24:21.864Z,6.30
2024-01-16T14:26:48.384Z,6.60
2024-01-16T14:29:14.983Z,6.50
2024-01-16T14:31:41.527Z,6.50
2024-01-16T14:34:08.144Z,6.40
2024-01-16T14:36:34.703Z,6.40
2024-01-16T14:39:01.295Z,6.40
2024-01-16T14:41:27.857Z,6.50
2024-01-16T14:43:54.422Z,6.60
2024-01-16T14:46:22.027Z,6.60
2024-01-16T14:48:49.960Z,6.70
2024-01-16T14:51:16.597Z,6.60
2024-01-16T14:53:43.212Z,6.50
2024-01-16T14:56:09.753Z,6.40
2024-01-16T14:58:36.274Z,6.50
2024-01-16T15:01:02.816Z,6.50
2024-01-16T15:03:29.401Z,6.40
2024-01-16T15:05:55.969Z,6.60
2024-01-16T15:08:22.589Z,6.50
2024-01-16T15:10:49.125Z,6.60
2024-01-16T15:13:15.659Z,6.70
2024-01-16T15:15:42.172Z,6.50
2024-01-16T15:18:08.744Z,6.40
2024-01-16T15:20:35.312Z,6.60
2024-01-16T15:23:01.858Z,6.60
2024-01-16T15:25:28.357Z,6.50
2024-01-16T15:27:54.978Z,6.70
2024-01-16T15:30:21.505Z,6.60
2024-01-16T15:32:48.115Z,6.60
2024-01-16T15:35:14.756Z,6.60
2024-01-16T15:37:41.323Z,6.60
2024-01-16T15:40:08.077Z,6.60
2024-01-16T15:42:34.741Z,6.60
2024-01-16T15:45:01.376Z,6.60
2024-01-16T15:47:28.028Z,6.80
2024-01-16T15:49:54.642Z,6.70
2024-01-16T15:52:21.234Z,6.70
2024-01-16T15:54:47.747Z,6.60
2024-01-16T15:57:14.287Z,6.30
2024-01-16T15:59:40.832Z,6.50
2024-01-16T16:02:07.391Z,6.50
2024-01-16T16:04:33.890Z,6.50
2024-01-16T16:07:00.492Z,6.30
2024-01-16T16:09:27.056Z,6.50
2024-01-16T16:11:53.683Z,6.50
2024-01-16T16:14:20.338Z,6.50
2024-01-16T16:16:46.890Z,6.60
2024-01-16T16:19:13.551Z,6.50
2024-01-16T16:21:40.179Z,6.50
2024-01-16T16:24:06.684Z,6.60
2024-01-16T16:26:33.457Z,6.60
2024-01-16T16:29:00.000Z,6.60
2024-01-16T16:31:28.187Z,6.50
2024-01-16T16:33:55.501Z,6.50
2024-01-16T16:36:22.091Z,6.50
2024-01-16T16:38:48.607Z,6.70
2024-01-16T16:41:15.192Z,6.60
2024-01-16T16:43:41.736Z,6.50
2024-01-16T16:46:08.280Z,6.40
2024-01-16T16:48:34.993Z,6.50
2024-01-16T16:51:01.866Z,6.50
2024-01-16T16:53:33.240Z,6.40
2024-01-16T16:56:05.610Z,6.60
2024-01-16T16:58:32.153Z,6.70
2024-01-16T17:00:58.708Z,6.60
2024-01-16T17:03:25.292Z,6.70
2024-01-16T17:05:51.912Z,6.60
2024-01-16T17:08:18.528Z,6.50
2024-01-16T17:10:45.055Z,6.50
2024-01-16T17:13:11.586Z,6.60
2024-01-16T17:15:38.102Z,6.60
2024-01-16T17:18:04.846Z,6.50
2024-01-16T17:20:31.500Z,6.50
2024-01-16T17:22:58.053Z,6.40
2024-01-16T17:25:24.557Z,6.30
2024-01-16T17:27:51.102Z,6.40
2024-01-16T17:30:17.652Z,6.50
2024-01-16T17:32:44.383Z,6.50
2024-01-16T17:35:10.979Z,6.40
2024-01-16T17:37:37.525Z,6.30
2024-01-16T17:40:04.066Z,6.40
2024-01-16T17:42:30.629Z,6.50
2024-01-16T17:44:57.223Z,6.50
2024-01-16T17:47:23.983Z,6.60
2024-01-16T17:49:50.638Z,6.50
2024-01-16T17:52:17.226Z,6.40
2024-01-16T17:54:43.728Z,6.50
2024-01-16T17:57:10.253Z,6.60
2024-01-16T17:59:36.810Z,6.50
2024-01-16T18:02:03.383Z,6.60
2024-01-16T18:04:29.900Z,6.60
2024-01-16T18:06:56.493Z,6.60
2024-01-16T18:09:23.048Z,6.50
2024-01-16T18:11:49.605Z,6.70
2024-01-16T18:14:16.243Z,6.70
2024-01-16T18:16:42.786Z,6.60
2024-01-16T18:19:09.429Z,6.60
2024-01-16T18:21:36.049Z,6.30
2024-01-16T18:24:02.631Z,6.30
2024-01-16T18:26:29.186Z,6.40
2024-01-16T18:28:55.770Z,6.30
2024-01-16T18:31:22.347Z,6.40
2024-01-16T18:33:48.976Z,6.40
2024-01-16T18:36:15.573Z,6.20
2024-01-16T18:38:42.208Z,6.00
2024-01-16T18:41:08.757Z,6.30
2024-01-16T18:43:35.312Z,6.40
2024-01-16T18:46:01.830Z,6.30
2024-01-16T18:48:28.499Z,6.40
2024-01-16T18:50:55.073Z,6.30
2024-01-16T18:53:21.907Z,6.40
2024-01-16T18:55:48.556Z,6.60
2024-01-16T18:58:15.094Z,6.50
2024-01-16T19:00:41.637Z,6.50
2024-01-16T19:03:08.188Z,6.40
2024-01-16T19:05:34.807Z,6.40
2024-01-16T19:08:01.343Z,6.50
2024-01-16T19:10:27.875Z,6.40
2024-01-16T19:12:54.520Z,6.20
2024-01-16T19:15:21.284Z,6.40
2024-01-16T19:17:48.095Z,6.40
2024-01-16T19:20:14.671Z,6.40
2024-01-16T19:22:41.190Z,6.20
2024-01-16T19:25:07.696Z,6.20
2024-01-16T19:27:34.255Z,6.20
2024-01-16T19:30:00.867Z,6.20
2024-01-16T19:32:27.676Z,6.30
2024-01-16T19:34:54.222Z,6.40
2024-01-16T19:37:20.746Z,6.20
2024-01-16T19:39:47.279Z,6.30
2024-01-16T19:42:13.832Z,6.30
2024-01-16T19:44:40.357Z,6.30
2024-01-16T19:47:06.929Z,6.30
2024-01-16T19:49:33.482Z,6.30
2024-01-16T19:52:00.020Z,6.40
2024-01-16T19:54:26.530Z,6.40
2024-01-16T19:56:53.101Z,6.40
2024-01-16T19:59:19.695Z,6.50
2024-01-16T20:01:46.277Z,6.50
2024-01-16T20:04:12.786Z,6.50
2024-01-16T20:06:39.477Z,6.50
2024-01-16T20:09:06.254Z,6.50
2024-01-16T20:11:32.849Z,6.60
2024-01-16T20:13:59.379Z,6.70
2024-01-16T20:16:25.925Z,6.60
2024-01-16T20:18:52.525Z,6.70
2024-01-16T20:21:19.144Z,6.60
2024-01-16T20:23:45.741Z,6.40
2024-01-16T20:26:12.289Z,6.50
2024-01-16T20:28:38.807Z,6.50
2024-01-16T20:31:05.351Z,6.50
2024-01-16T20:33:31.974Z,6.40
2024-01-16T20:35:58.732Z,6.20
2024-01-16T20:38:25.359Z,6.20
2024-01-16T20:40:51.900Z,6.30
2024-01-16T20:43:18.417Z,6.40
2024-01-16T20:45:44.960Z,6.40
2024-01-16T20:48:11.618Z,6.20
2024-01-16T20:50:38.222Z,6.30
2024-01-16T20:55:55.192Z,6.30
2024-01-16T20:58:21.724Z,6.40
2024-01-16T21:00:48.301Z,6.30
2024-01-16T21:03:14.882Z,6.20
2024-01-16T21:05:41.684Z,6.20
2024-01-16T21:08:08.470Z,6.30
2024-01-16T21:10:35.073Z,6.20
2024-01-16T21:13:01.643Z,6.20
2024-01-16T21:15:28.217Z,6.10
2024-01-16T21:17:54.810Z,6.20
2024-01-16T21:20:21.374Z,6.20
2024-01-16T21:22:47.985Z,6.10
2024-01-16T21:25:14.535Z,6.00
2024-01-16T21:27:41.055Z,6.00
2024-01-16T21:30:07.725Z,6.20
2024-01-16T21:32:34.442Z,6.20
2024-01-16T21:35:00.993Z,6.20
2024-01-16T21:37:27.513Z,6.20
2024-01-16T21:39:54.039Z,6.20
2024-01-16T21:42:20.572Z,6.10
2024-01-16T21:44:47.100Z,6.30
2024-01-16T21:47:13.652Z,6.20
2024-01-16T21:49:40.291Z,6.30
2024-01-16T21:52:06.906Z,6.20
2024-01-16T21:54:33.425Z,6.30
2024-01-16T21:57:00.056Z,6.60
2024-01-16T21:59:26.721Z,6.50
2024-01-16T22:01:53.269Z,6.50
2024-01-16T22:04:19.800Z,6.40
2024-01-16T22:06:46.362Z,6.40
2024-01-16T22:09:12.912Z,6.30
2024-01-16T22:11:39.447Z,6.60
2024-01-16T22:14:05.994Z,6.60
2024-01-16T22:16:32.526Z,6.50
2024-01-16T22:18:59.121Z,6.50
2024-01-16T22:21:25.650Z,6.60
2024-01-16T22:23:52.183Z,6.80
2024-01-16T22:26:18.697Z,6.70
2024-01-16T22:28:45.238Z,6.80
2024-01-16T22:31:11.780Z,6.70
2024-01-16T22:33:38.474Z,6.80
2024-01-16T22:36:05.127Z,6.80
2024-01-16T22:38:31.756Z,6.70
2024-01-16T22:40:58.370Z,6.70
2024-01-16T22:43:24.957Z,6.80
2024-01-16T22:45:51.470Z,6.70
2024-01-16T22:48:18.135Z,6.80
2024-01-16T22:50:44.740Z,6.80
2024-01-16T22:53:11.449Z,6.90
2024-01-16T22:55:37.979Z,6.90
2024-01-16T22:58:04.502Z,6.80
2024-01-16T23:00:31.226Z,6.80
2024-01-16T23:02:57.956Z,6.80
2024-01-16T23:05:27.890Z,6.80
2024-01-16T23:07:55.069Z,6.80
2024-01-16T23:10:21.609Z,6.70
2024-01-16T23:12:48.124Z,6.60
2024-01-16T23:15:14.633Z,6.70
2024-01-16T23:17:41.175Z,6.70
2024-01-16T23:20:07.727Z,6.80
2024-01-16T23:22:34.231Z,6.80
2024-01-16T23:25:00.739Z,6.80
2024-01-16T23:27:27.255Z,6.80
2024-01-16T23:29:53.803Z,6.80
2024-01-16T23:32:20.364Z,6.80
2024-01-16T23:34:46.960Z,6.70
2024-01-16T23:37:13.498Z,6.70
2024-01-16T23:39:40.011Z,6.80
2024-01-16T23:42:06.580Z,6.70
2024-01-16T23:44:33.172Z,6.70
2024-01-16T23:46:59.708Z,6.70
2024-01-16T23:49:26.230Z,6.70
2024-01-16T23:51:52.768Z,6.70
2024-01-16T23:54:19.349Z,6.70
2024-01-16T23:56:45.920Z,6.70
2024-01-16T23:59:12.470Z,6.80
